sensor_id;sensor_type;location;lat;lon;timestamp;P1;durP1;ratioP1;P2;durP2;ratioP2
52554;SDS011;38455;52.710;6.502;2023-11-21T00:01:57;51.10;;;21.38;;
52554;SDS011;38455;52.710;6.502;2023-11-21T00:04:23;48.90;;;21.90;;
52554;SDS011;38455;52.710;6.502;2023-11-21T00:06:49;53.88;;;21.65;;
52554;SDS011;38455;52.710;6.502;2023-11-21T00:09:15;50.88;;;20.90;;
52554;SDS011;38455;52.710;6.502;2023-11-21T00:11:42;47.60;;;20.60;;
52554;SDS011;38455;52.710;6.502;2023-11-21T00:14:09;49.17;;;21.58;;
52554;SDS011;38455;52.710;6.502;2023-11-21T00:16:35;53.70;;;22.27;;
52554;SDS011;38455;52.710;6.502;2023-11-21T00:19:01;53.10;;;23.80;;
52554;SDS011;38455;52.710;6.502;2023-11-21T00:21:27;50.63;;;23.75;;
52554;SDS011;38455;52.710;6.502;2023-11-21T00:23:53;56.60;;;23.67;;
52554;SDS011;38455;52.710;6.502;2023-11-21T00:26:18;53.33;;;23.00;;
52554;SDS011;38455;52.710;6.502;2023-11-21T00:28:44;52.35;;;21.23;;
52554;SDS011;38455;52.710;6.502;2023-11-21T00:31:10;49.45;;;22.17;;
52554;SDS011;38455;52.710;6.502;2023-11-21T00:33:36;48.38;;;23.35;;
52554;SDS011;38455;52.710;6.502;2023-11-21T00:36:02;51.90;;;22.15;;
52554;SDS011;38455;52.710;6.502;2023-11-21T00:38:27;59.55;;;23.10;;
52554;SDS011;38455;52.710;6.502;2023-11-21T00:40:53;64.57;;;25.40;;
52554;SDS011;38455;52.710;6.502;2023-11-21T00:43:24;55.85;;;23.65;;
52554;SDS011;38455;52.710;6.502;2023-11-21T00:45:50;71.57;;;28.48;;
52554;SDS011;38455;52.710;6.502;2023-11-21T00:48:16;55.47;;;25.10;;
52554;SDS011;38455;52.710;6.502;2023-11-21T00:50:42;68.30;;;26.90;;
52554;SDS011;38455;52.710;6.502;2023-11-21T00:53:08;60.53;;;24.35;;
52554;SDS011;38455;52.710;6.502;2023-11-21T00:55:34;55.28;;;24.25;;
52554;SDS011;38455;52.710;6.502;2023-11-21T00:58:00;54.78;;;24.25;;
52554;SDS011;38455;52.710;6.502;2023-11-21T01:00:28;65.30;;;23.58;;
52554;SDS011;38455;52.710;6.502;2023-11-21T01:02:54;53.78;;;24.42;;
52554;SDS011;38455;52.710;6.502;2023-11-21T01:05:20;58.90;;;24.75;;
52554;SDS011;38455;52.710;6.502;2023-11-21T01:07:46;61.75;;;24.33;;
52554;SDS011;38455;52.710;6.502;2023-11-21T01:10:12;53.13;;;21.58;;
52554;SDS011;38455;52.710;6.502;2023-11-21T01:12:38;55.72;;;24.90;;
52554;SDS011;38455;52.710;6.502;2023-11-21T01:15:04;57.63;;;25.25;;
52554;SDS011;38455;52.710;6.502;2023-11-21T01:17:32;58.15;;;24.48;;
52554;SDS011;38455;52.710;6.502;2023-11-21T01:19:59;63.40;;;24.45;;
52554;SDS011;38455;52.710;6.502;2023-11-21T01:22:25;48.00;;;22.17;;
52554;SDS011;38455;52.710;6.502;2023-11-21T01:24:52;60.47;;;24.77;;
52554;SDS011;38455;52.710;6.502;2023-11-21T01:27:18;53.58;;;23.92;;
52554;SDS011;38455;52.710;6.502;2023-11-21T01:29:44;62.92;;;24.17;;
52554;SDS011;38455;52.710;6.502;2023-11-21T01:32:10;59.60;;;22.42;;
52554;SDS011;38455;52.710;6.502;2023-11-21T01:34:36;53.85;;;23.63;;
52554;SDS011;38455;52.710;6.502;2023-11-21T01:37:02;59.25;;;23.50;;
52554;SDS011;38455;52.710;6.502;2023-11-21T01:39:30;58.08;;;24.27;;
52554;SDS011;38455;52.710;6.502;2023-11-21T01:41:56;61.45;;;25.35;;
52554;SDS011;38455;52.710;6.502;2023-11-21T01:44:23;58.45;;;24.25;;
52554;SDS011;38455;52.710;6.502;2023-11-21T01:46:49;51.42;;;22.80;;
52554;SDS011;38455;52.710;6.502;2023-11-21T01:49:17;53.55;;;22.48;;
52554;SDS011;38455;52.710;6.502;2023-11-21T01:51:46;59.80;;;23.15;;
52554;SDS011;38455;52.710;6.502;2023-11-21T01:54:15;58.28;;;23.52;;
52554;SDS011;38455;52.710;6.502;2023-11-21T01:56:42;51.63;;;23.17;;
52554;SDS011;38455;52.710;6.502;2023-11-21T01:59:17;53.60;;;22.05;;
52554;SDS011;38455;52.710;6.502;2023-11-21T02:01:46;59.75;;;22.55;;
52554;SDS011;38455;52.710;6.502;2023-11-21T02:04:12;54.55;;;23.55;;
52554;SDS011;38455;52.710;6.502;2023-11-21T02:06:39;56.75;;;23.58;;
52554;SDS011;38455;52.710;6.502;2023-11-21T02:09:04;66.63;;;23.40;;
52554;SDS011;38455;52.710;6.502;2023-11-21T02:11:30;53.80;;;22.35;;
52554;SDS011;38455;52.710;6.502;2023-11-21T02:13:58;53.05;;;21.67;;
52554;SDS011;38455;52.710;6.502;2023-11-21T02:16:24;49.17;;;22.65;;
52554;SDS011;38455;52.710;6.502;2023-11-21T02:18:50;56.08;;;23.70;;
52554;SDS011;38455;52.710;6.502;2023-11-21T02:21:17;58.90;;;22.65;;
52554;SDS011;38455;52.710;6.502;2023-11-21T02:23:44;56.55;;;22.20;;
52554;SDS011;38455;52.710;6.502;2023-11-21T02:26:11;58.25;;;23.38;;
52554;SDS011;38455;52.710;6.502;2023-11-21T02:28:39;56.97;;;22.85;;
52554;SDS011;38455;52.710;6.502;2023-11-21T02:31:05;68.70;;;25.05;;
52554;SDS011;38455;52.710;6.502;2023-11-21T02:33:31;60.33;;;24.15;;
52554;SDS011;38455;52.710;6.502;2023-11-21T02:35:59;89.00;;;27.88;;
52554;SDS011;38455;52.710;6.502;2023-11-21T02:38:26;70.45;;;24.40;;
52554;SDS011;38455;52.710;6.502;2023-11-21T02:40:51;70.00;;;25.20;;
52554;SDS011;38455;52.710;6.502;2023-11-21T02:43:17;83.13;;;28.42;;
52554;SDS011;38455;52.710;6.502;2023-11-21T02:45:42;64.65;;;25.25;;
52554;SDS011;38455;52.710;6.502;2023-11-21T02:48:08;62.22;;;24.67;;
52554;SDS011;38455;52.710;6.502;2023-11-21T02:50:34;62.90;;;25.00;;
52554;SDS011;38455;52.710;6.502;2023-11-21T02:53:02;58.88;;;24.90;;
52554;SDS011;38455;52.710;6.502;2023-11-21T02:55:30;60.35;;;25.10;;
52554;SDS011;38455;52.710;6.502;2023-11-21T02:57:59;62.63;;;24.80;;
52554;SDS011;38455;52.710;6.502;2023-11-21T03:00:25;56.60;;;24.52;;
52554;SDS011;38455;52.710;6.502;2023-11-21T03:02:51;57.40;;;23.30;;
52554;SDS011;38455;52.710;6.502;2023-11-21T03:05:18;59.92;;;26.00;;
52554;SDS011;38455;52.710;6.502;2023-11-21T03:07:44;59.53;;;24.17;;
52554;SDS011;38455;52.710;6.502;2023-11-21T03:10:10;60.92;;;24.98;;
52554;SDS011;38455;52.710;6.502;2023-11-21T03:12:36;66.30;;;26.52;;
52554;SDS011;38455;52.710;6.502;2023-11-21T03:15:03;69.35;;;26.25;;
52554;SDS011;38455;52.710;6.502;2023-11-21T03:17:31;64.72;;;26.85;;
52554;SDS011;38455;52.710;6.502;2023-11-21T03:19:56;72.15;;;25.88;;
52554;SDS011;38455;52.710;6.502;2023-11-21T03:22:22;61.50;;;26.27;;
52554;SDS011;38455;52.710;6.502;2023-11-21T03:24:48;63.47;;;25.17;;
52554;SDS011;38455;52.710;6.502;2023-11-21T03:27:14;65.65;;;25.10;;
52554;SDS011;38455;52.710;6.502;2023-11-21T03:29:39;60.35;;;25.20;;
52554;SDS011;38455;52.710;6.502;2023-11-21T03:32:05;75.53;;;28.33;;
52554;SDS011;38455;52.710;6.502;2023-11-21T03:34:32;71.05;;;25.38;;
52554;SDS011;38455;52.710;6.502;2023-11-21T03:36:57;62.00;;;25.70;;
52554;SDS011;38455;52.710;6.502;2023-11-21T03:39:23;65.57;;;24.45;;
52554;SDS011;38455;52.710;6.502;2023-11-21T03:41:50;60.35;;;24.40;;
52554;SDS011;38455;52.710;6.502;2023-11-21T03:44:17;59.90;;;24.98;;
52554;SDS011;38455;52.710;6.502;2023-11-21T03:46:43;76.85;;;27.52;;
52554;SDS011;38455;52.710;6.502;2023-11-21T03:49:09;63.83;;;25.27;;
52554;SDS011;38455;52.710;6.502;2023-11-21T03:51:36;69.57;;;25.85;;
52554;SDS011;38455;52.710;6.502;2023-11-21T03:54:02;59.53;;;24.35;;
52554;SDS011;38455;52.710;6.502;2023-11-21T03:56:28;70.07;;;26.23;;
52554;SDS011;38455;52.710;6.502;2023-11-21T03:58:53;78.05;;;27.10;;
52554;SDS011;38455;52.710;6.502;2023-11-21T04:01:22;67.07;;;26.50;;
52554;SDS011;38455;52.710;6.502;2023-11-21T04:03:49;59.50;;;24.08;;
52554;SDS011;38455;52.710;6.502;2023-11-21T04:06:16;71.28;;;26.42;;
52554;SDS011;38455;52.710;6.502;2023-11-21T04:08:42;70.30;;;24.70;;
52554;SDS011;38455;52.710;6.502;2023-11-21T04:11:09;64.28;;;24.88;;
52554;SDS011;38455;52.710;6.502;2023-11-21T04:13:39;66.18;;;25.08;;
52554;SDS011;38455;52.710;6.502;2023-11-21T04:16:05;64.63;;;26.10;;
52554;SDS011;38455;52.710;6.502;2023-11-21T04:18:32;67.97;;;25.10;;
52554;SDS011;38455;52.710;6.502;2023-11-21T04:20:58;68.80;;;25.23;;
52554;SDS011;38455;52.710;6.502;2023-11-21T04:23:24;63.65;;;24.83;;
52554;SDS011;38455;52.710;6.502;2023-11-21T04:25:50;66.43;;;24.48;;
52554;SDS011;38455;52.710;6.502;2023-11-21T04:28:15;65.22;;;26.05;;
52554;SDS011;38455;52.710;6.502;2023-11-21T04:30:41;63.35;;;24.95;;
52554;SDS011;38455;52.710;6.502;2023-11-21T04:33:07;82.78;;;27.73;;
52554;SDS011;38455;52.710;6.502;2023-11-21T04:35:32;87.97;;;28.13;;
52554;SDS011;38455;52.710;6.502;2023-11-21T04:37:58;131.70;;;34.58;;
52554;SDS011;38455;52.710;6.502;2023-11-21T04:40:24;74.15;;;26.70;;
52554;SDS011;38455;52.710;6.502;2023-11-21T04:42:52;68.57;;;27.02;;
52554;SDS011;38455;52.710;6.502;2023-11-21T04:45:17;80.97;;;27.70;;
52554;SDS011;38455;52.710;6.502;2023-11-21T04:47:43;81.90;;;27.27;;
52554;SDS011;38455;52.710;6.502;2023-11-21T04:50:09;115.47;;;31.08;;
52554;SDS011;38455;52.710;6.502;2023-11-21T04:52:34;102.88;;;30.33;;
52554;SDS011;38455;52.710;6.502;2023-11-21T04:55:00;80.50;;;26.35;;
52554;SDS011;38455;52.710;6.502;2023-11-21T04:57:27;91.80;;;28.73;;
52554;SDS011;38455;52.710;6.502;2023-11-21T04:59:53;89.07;;;26.27;;
52554;SDS011;38455;52.710;6.502;2023-11-21T05:02:19;64.20;;;24.10;;
52554;SDS011;38455;52.710;6.502;2023-11-21T05:04:46;81.10;;;28.23;;
52554;SDS011;38455;52.710;6.502;2023-11-21T05:07:12;46.72;;;21.40;;
52554;SDS011;38455;52.710;6.502;2023-11-21T05:09:42;52.17;;;21.80;;
52554;SDS011;38455;52.710;6.502;2023-11-21T05:12:09;66.28;;;25.90;;
52554;SDS011;38455;52.710;6.502;2023-11-21T05:14:36;50.35;;;20.83;;
52554;SDS011;38455;52.710;6.502;2023-11-21T05:17:01;42.72;;;19.05;;
52554;SDS011;38455;52.710;6.502;2023-11-21T05:19:29;66.88;;;23.98;;
52554;SDS011;38455;52.710;6.502;2023-11-21T05:21:54;51.78;;;20.73;;
52554;SDS011;38455;52.710;6.502;2023-11-21T05:24:20;56.08;;;22.60;;
52554;SDS011;38455;52.710;6.502;2023-11-21T05:26:46;86.35;;;27.00;;
52554;SDS011;38455;52.710;6.502;2023-11-21T05:29:11;58.88;;;22.95;;
52554;SDS011;38455;52.710;6.502;2023-11-21T05:31:37;62.20;;;23.25;;
52554;SDS011;38455;52.710;6.502;2023-11-21T05:34:03;57.90;;;22.88;;
52554;SDS011;38455;52.710;6.502;2023-11-21T05:36:30;78.47;;;25.27;;
52554;SDS011;38455;52.710;6.502;2023-11-21T05:38:56;64.30;;;24.58;;
52554;SDS011;38455;52.710;6.502;2023-11-21T05:41:21;57.47;;;23.98;;
52554;SDS011;38455;52.710;6.502;2023-11-21T05:43:48;58.72;;;23.38;;
52554;SDS011;38455;52.710;6.502;2023-11-21T05:46:14;93.55;;;29.55;;
52554;SDS011;38455;52.710;6.502;2023-11-21T05:48:39;47.75;;;22.00;;
52554;SDS011;38455;52.710;6.502;2023-11-21T05:51:06;63.92;;;23.15;;
52554;SDS011;38455;52.710;6.502;2023-11-21T05:53:31;55.67;;;23.20;;
52554;SDS011;38455;52.710;6.502;2023-11-21T05:55:57;54.10;;;23.38;;
52554;SDS011;38455;52.710;6.502;2023-11-21T05:58:23;62.95;;;25.65;;
52554;SDS011;38455;52.710;6.502;2023-11-21T06:00:49;103.32;;;28.70;;
52554;SDS011;38455;52.710;6.502;2023-11-21T06:03:14;70.00;;;24.60;;
52554;SDS011;38455;52.710;6.502;2023-11-21T06:05:40;57.75;;;21.92;;
52554;SDS011;38455;52.710;6.502;2023-11-21T06:08:06;70.82;;;25.35;;
52554;SDS011;38455;52.710;6.502;2023-11-21T06:10:32;97.30;;;27.52;;
52554;SDS011;38455;52.710;6.502;2023-11-21T06:12:58;84.90;;;26.40;;
52554;SDS011;38455;52.710;6.502;2023-11-21T06:15:23;48.55;;;21.75;;
52554;SDS011;38455;52.710;6.502;2023-11-21T06:17:49;55.45;;;21.77;;
52554;SDS011;38455;52.710;6.502;2023-11-21T06:20:17;49.15;;;21.00;;
52554;SDS011;38455;52.710;6.502;2023-11-21T06:22:44;52.95;;;20.92;;
52554;SDS011;38455;52.710;6.502;2023-11-21T06:25:12;56.63;;;21.70;;
52554;SDS011;38455;52.710;6.502;2023-11-21T06:27:42;62.45;;;24.48;;
52554;SDS011;38455;52.710;6.502;2023-11-21T06:30:09;56.05;;;20.88;;
52554;SDS011;38455;52.710;6.502;2023-11-21T06:32:37;52.95;;;22.95;;
52554;SDS011;38455;52.710;6.502;2023-11-21T06:35:03;76.28;;;27.58;;
52554;SDS011;38455;52.710;6.502;2023-11-21T06:37:29;62.85;;;24.13;;
52554;SDS011;38455;52.710;6.502;2023-11-21T06:39:57;66.18;;;26.25;;
52554;SDS011;38455;52.710;6.502;2023-11-21T06:42:24;73.53;;;26.75;;
52554;SDS011;38455;52.710;6.502;2023-11-21T06:44:50;74.97;;;26.95;;
52554;SDS011;38455;52.710;6.502;2023-11-21T06:47:22;67.55;;;25.13;;
52554;SDS011;38455;52.710;6.502;2023-11-21T06:49:50;76.03;;;26.77;;
52554;SDS011;38455;52.710;6.502;2023-11-21T06:52:16;61.58;;;25.60;;
52554;SDS011;38455;52.710;6.502;2023-11-21T06:54:43;75.82;;;27.52;;
52554;SDS011;38455;52.710;6.502;2023-11-21T06:57:09;86.85;;;29.13;;
52554;SDS011;38455;52.710;6.502;2023-11-21T06:59:34;71.80;;;28.23;;
52554;SDS011;38455;52.710;6.502;2023-11-21T07:02:00;77.07;;;28.05;;
52554;SDS011;38455;52.710;6.502;2023-11-21T07:04:26;95.93;;;31.13;;
52554;SDS011;38455;52.710;6.502;2023-11-21T07:06:55;88.63;;;30.23;;
52554;SDS011;38455;52.710;6.502;2023-11-21T07:09:21;78.95;;;28.55;;
52554;SDS011;38455;52.710;6.502;2023-11-21T07:11:50;106.82;;;32.38;;
52554;SDS011;38455;52.710;6.502;2023-11-21T07:14:16;78.57;;;29.25;;
52554;SDS011;38455;52.710;6.502;2023-11-21T07:16:44;83.63;;;29.58;;
52554;SDS011;38455;52.710;6.502;2023-11-21T07:19:10;75.63;;;28.10;;
52554;SDS011;38455;52.710;6.502;2023-11-21T07:21:37;63.70;;;25.10;;
52554;SDS011;38455;52.710;6.502;2023-11-21T07:24:04;68.85;;;26.42;;
52554;SDS011;38455;52.710;6.502;2023-11-21T07:26:31;64.53;;;26.30;;
52554;SDS011;38455;52.710;6.502;2023-11-21T07:29:03;60.30;;;24.65;;
52554;SDS011;38455;52.710;6.502;2023-11-21T07:31:29;113.05;;;34.20;;
52554;SDS011;38455;52.710;6.502;2023-11-21T07:33:55;62.05;;;25.60;;
52554;SDS011;38455;52.710;6.502;2023-11-21T07:36:24;77.78;;;27.90;;
52554;SDS011;38455;52.710;6.502;2023-11-21T07:38:49;63.42;;;24.63;;
52554;SDS011;38455;52.710;6.502;2023-11-21T07:41:16;57.85;;;23.85;;
52554;SDS011;38455;52.710;6.502;2023-11-21T07:43:43;58.13;;;23.45;;
52554;SDS011;38455;52.710;6.502;2023-11-21T07:46:10;53.80;;;22.35;;
52554;SDS011;38455;52.710;6.502;2023-11-21T07:48:37;69.15;;;25.52;;
52554;SDS011;38455;52.710;6.502;2023-11-21T07:51:07;62.15;;;24.27;;
52554;SDS011;38455;52.710;6.502;2023-11-21T07:53:33;74.50;;;25.27;;
52554;SDS011;38455;52.710;6.502;2023-11-21T07:56:03;59.85;;;25.27;;
52554;SDS011;38455;52.710;6.502;2023-11-21T07:58:35;52.67;;;24.52;;
52554;SDS011;38455;52.710;6.502;2023-11-21T08:01:02;74.22;;;26.10;;
52554;SDS011;38455;52.710;6.502;2023-11-21T08:03:28;74.30;;;27.27;;
52554;SDS011;38455;52.710;6.502;2023-11-21T08:05:57;64.30;;;25.52;;
52554;SDS011;38455;52.710;6.502;2023-11-21T08:08:24;57.92;;;24.17;;
52554;SDS011;38455;52.710;6.502;2023-11-21T08:10:51;54.28;;;22.42;;
52554;SDS011;38455;52.710;6.502;2023-11-21T08:13:26;55.10;;;22.17;;
52554;SDS011;38455;52.710;6.502;2023-11-21T08:15:55;54.38;;;21.02;;
52554;SDS011;38455;52.710;6.502;2023-11-21T08:18:26;47.55;;;19.65;;
52554;SDS011;38455;52.710;6.502;2023-11-21T08:20:52;44.72;;;19.25;;
52554;SDS011;38455;52.710;6.502;2023-11-21T08:23:20;51.20;;;20.17;;
52554;SDS011;38455;52.710;6.502;2023-11-21T08:25:50;41.58;;;19.60;;
52554;SDS011;38455;52.710;6.502;2023-11-21T08:28:16;35.38;;;17.67;;
52554;SDS011;38455;52.710;6.502;2023-11-21T08:30:41;40.47;;;18.17;;
52554;SDS011;38455;52.710;6.502;2023-11-21T08:33:08;42.33;;;18.90;;
52554;SDS011;38455;52.710;6.502;2023-11-21T08:35:34;41.65;;;17.40;;
52554;SDS011;38455;52.710;6.502;2023-11-21T08:37:59;35.88;;;17.27;;
52554;SDS011;38455;52.710;6.502;2023-11-21T08:40:25;40.45;;;16.25;;
52554;SDS011;38455;52.710;6.502;2023-11-21T08:42:51;32.25;;;15.60;;
52554;SDS011;38455;52.710;6.502;2023-11-21T08:45:18;33.80;;;15.50;;
52554;SDS011;38455;52.710;6.502;2023-11-21T08:47:44;35.08;;;16.05;;
52554;SDS011;38455;52.710;6.502;2023-11-21T08:50:10;35.20;;;15.88;;
52554;SDS011;38455;52.710;6.502;2023-11-21T08:52:37;35.15;;;15.82;;
52554;SDS011;38455;52.710;6.502;2023-11-21T08:55:07;39.60;;;18.25;;
52554;SDS011;38455;52.710;6.502;2023-11-21T08:57:36;40.33;;;16.10;;
52554;SDS011;38455;52.710;6.502;2023-11-21T09:00:05;31.35;;;15.52;;
52554;SDS011;38455;52.710;6.502;2023-11-21T09:02:36;34.80;;;16.27;;
52554;SDS011;38455;52.710;6.502;2023-11-21T09:05:09;30.02;;;14.55;;
52554;SDS011;38455;52.710;6.502;2023-11-21T09:07:35;35.33;;;15.27;;
52554;SDS011;38455;52.710;6.502;2023-11-21T09:10:02;32.85;;;15.52;;
52554;SDS011;38455;52.710;6.502;2023-11-21T09:12:28;31.70;;;16.27;;
52554;SDS011;38455;52.710;6.502;2023-11-21T09:14:54;37.65;;;15.50;;
52554;SDS011;38455;52.710;6.502;2023-11-21T09:17:19;44.17;;;15.85;;
52554;SDS011;38455;52.710;6.502;2023-11-21T09:19:45;31.40;;;14.55;;
52554;SDS011;38455;52.710;6.502;2023-11-21T09:22:15;31.80;;;13.32;;
52554;SDS011;38455;52.710;6.502;2023-11-21T09:24:41;29.40;;;14.23;;
52554;SDS011;38455;52.710;6.502;2023-11-21T09:27:07;24.13;;;12.68;;
52554;SDS011;38455;52.710;6.502;2023-11-21T09:29:34;23.00;;;11.73;;
52554;SDS011;38455;52.710;6.502;2023-11-21T09:32:00;27.65;;;13.10;;
52554;SDS011;38455;52.710;6.502;2023-11-21T09:34:26;27.00;;;11.68;;
52554;SDS011;38455;52.710;6.502;2023-11-21T09:36:52;29.00;;;12.82;;
52554;SDS011;38455;52.710;6.502;2023-11-21T09:39:19;39.22;;;15.30;;
52554;SDS011;38455;52.710;6.502;2023-11-21T09:41:57;49.10;;;16.13;;
52554;SDS011;38455;52.710;6.502;2023-11-21T09:45:17;52.63;;;19.13;;
52554;SDS011;38455;52.710;6.502;2023-11-21T09:47:16;63.50;;;20.30;;
52554;SDS011;38455;52.710;6.502;2023-11-21T09:49:49;54.00;;;19.85;;
52554;SDS011;38455;52.710;6.502;2023-11-21T09:52:17;68.15;;;22.60;;
52554;SDS011;38455;52.710;6.502;2023-11-21T09:54:49;63.80;;;21.65;;
52554;SDS011;38455;52.710;6.502;2023-11-21T09:57:15;75.07;;;23.70;;
52554;SDS011;38455;52.710;6.502;2023-11-21T09:59:41;55.28;;;20.92;;
52554;SDS011;38455;52.710;6.502;2023-11-21T10:02:09;81.22;;;25.27;;
52554;SDS011;38455;52.710;6.502;2023-11-21T10:04:38;91.07;;;26.88;;
52554;SDS011;38455;52.710;6.502;2023-11-21T10:07:05;72.90;;;25.70;;
52554;SDS011;38455;52.710;6.502;2023-11-21T10:09:35;67.38;;;26.42;;
52554;SDS011;38455;52.710;6.502;2023-11-21T10:12:03;65.65;;;25.35;;
52554;SDS011;38455;52.710;6.502;2023-11-21T10:14:34;55.33;;;24.67;;
52554;SDS011;38455;52.710;6.502;2023-11-21T10:17:02;67.93;;;24.92;;
52554;SDS011;38455;52.710;6.502;2023-11-21T10:19:28;67.43;;;24.17;;
52554;SDS011;38455;52.710;6.502;2023-11-21T10:21:55;61.92;;;25.27;;
52554;SDS011;38455;52.710;6.502;2023-11-21T10:24:22;61.55;;;25.77;;
52554;SDS011;38455;52.710;6.502;2023-11-21T10:26:48;58.90;;;24.17;;
52554;SDS011;38455;52.710;6.502;2023-11-21T10:29:16;82.32;;;26.88;;
52554;SDS011;38455;52.710;6.502;2023-11-21T10:31:42;65.13;;;24.83;;
52554;SDS011;38455;52.710;6.502;2023-11-21T10:34:19;64.45;;;25.38;;
52554;SDS011;38455;52.710;6.502;2023-11-21T10:36:46;73.72;;;25.63;;
52554;SDS011;38455;52.710;6.502;2023-11-21T10:39:18;54.47;;;23.50;;
52554;SDS011;38455;52.710;6.502;2023-11-21T10:41:49;53.88;;;22.35;;
52554;SDS011;38455;52.710;6.502;2023-11-21T10:44:18;58.60;;;22.92;;
52554;SDS011;38455;52.710;6.502;2023-11-21T10:46:49;52.20;;;22.13;;
52554;SDS011;38455;52.710;6.502;2023-11-21T10:49:20;48.92;;;21.67;;
52554;SDS011;38455;52.710;6.502;2023-11-21T10:51:45;51.03;;;21.45;;
52554;SDS011;38455;52.710;6.502;2023-11-21T10:54:16;49.30;;;21.40;;
52554;SDS011;38455;52.710;6.502;2023-11-21T10:56:46;43.13;;;21.95;;
52554;SDS011;38455;52.710;6.502;2023-11-21T10:59:16;46.28;;;21.70;;
52554;SDS011;38455;52.710;6.502;2023-11-21T11:01:42;49.15;;;21.33;;
52554;SDS011;38455;52.710;6.502;2023-11-21T11:04:11;40.22;;;21.38;;
52554;SDS011;38455;52.710;6.502;2023-11-21T11:06:45;41.60;;;20.17;;
52554;SDS011;38455;52.710;6.502;2023-11-21T11:09:16;35.28;;;18.02;;
52554;SDS011;38455;52.710;6.502;2023-11-21T11:11:43;38.80;;;18.33;;
52554;SDS011;38455;52.710;6.502;2023-11-21T11:14:13;37.53;;;18.13;;
52554;SDS011;38455;52.710;6.502;2023-11-21T11:16:39;32.75;;;17.15;;
52554;SDS011;38455;52.710;6.502;2023-11-21T11:19:06;33.05;;;17.75;;
52554;SDS011;38455;52.710;6.502;2023-11-21T11:24:18;33.25;;;18.00;;
52554;SDS011;38455;52.710;6.502;2023-11-21T11:32:51;29.52;;;16.30;;
52554;SDS011;38455;52.710;6.502;2023-11-21T11:38:15;24.25;;;14.48;;
52554;SDS011;38455;52.710;6.502;2023-11-21T11:40:41;25.10;;;15.00;;
52554;SDS011;38455;52.710;6.502;2023-11-21T11:43:10;23.65;;;13.85;;
52554;SDS011;38455;52.710;6.502;2023-11-21T11:45:37;20.25;;;12.45;;
52554;SDS011;38455;52.710;6.502;2023-11-21T11:48:16;23.08;;;12.70;;
52554;SDS011;38455;52.710;6.502;2023-11-21T11:51:00;18.27;;;12.02;;
52554;SDS011;38455;52.710;6.502;2023-11-21T11:53:28;20.52;;;12.20;;
52554;SDS011;38455;52.710;6.502;2023-11-21T11:56:22;21.38;;;12.60;;
52554;SDS011;38455;52.710;6.502;2023-11-21T11:58:54;20.38;;;12.70;;
52554;SDS011;38455;52.710;6.502;2023-11-21T12:01:21;17.35;;;11.55;;
52554;SDS011;38455;52.710;6.502;2023-11-21T12:06:59;16.02;;;10.25;;
52554;SDS011;38455;52.710;6.502;2023-11-21T12:09:30;14.40;;;10.02;;
52554;SDS011;38455;52.710;6.502;2023-11-21T12:11:56;15.50;;;10.93;;
52554;SDS011;38455;52.710;6.502;2023-11-21T12:14:22;16.88;;;10.85;;
52554;SDS011;38455;52.710;6.502;2023-11-21T12:16:48;13.93;;;9.73;;
52554;SDS011;38455;52.710;6.502;2023-11-21T12:19:14;13.15;;;9.18;;
52554;SDS011;38455;52.710;6.502;2023-11-21T12:21:40;14.38;;;9.20;;
52554;SDS011;38455;52.710;6.502;2023-11-21T12:24:06;13.70;;;9.48;;
52554;SDS011;38455;52.710;6.502;2023-11-21T12:26:38;14.60;;;9.40;;
52554;SDS011;38455;52.710;6.502;2023-11-21T12:29:05;15.23;;;8.80;;
52554;SDS011;38455;52.710;6.502;2023-11-21T12:31:32;12.35;;;7.97;;
52554;SDS011;38455;52.710;6.502;2023-11-21T12:33:59;16.80;;;8.32;;
52554;SDS011;38455;52.710;6.502;2023-11-21T12:36:25;13.38;;;8.45;;
52554;SDS011;38455;52.710;6.502;2023-11-21T12:38:51;12.40;;;8.10;;
52554;SDS011;38455;52.710;6.502;2023-11-21T12:41:17;16.52;;;8.38;;
52554;SDS011;38455;52.710;6.502;2023-11-21T12:43:43;11.95;;;8.15;;
52554;SDS011;38455;52.710;6.502;2023-11-21T12:46:12;11.63;;;8.13;;
52554;SDS011;38455;52.710;6.502;2023-11-21T12:48:39;12.55;;;7.97;;
52554;SDS011;38455;52.710;6.502;2023-11-21T12:51:07;14.55;;;8.50;;
52554;SDS011;38455;52.710;6.502;2023-11-21T12:53:34;11.65;;;8.15;;
52554;SDS011;38455;52.710;6.502;2023-11-21T12:56:07;12.85;;;8.02;;
52554;SDS011;38455;52.710;6.502;2023-11-21T12:58:36;12.70;;;8.20;;
52554;SDS011;38455;52.710;6.502;2023-11-21T13:01:04;14.45;;;8.68;;
52554;SDS011;38455;52.710;6.502;2023-11-21T13:03:36;12.60;;;8.60;;
52554;SDS011;38455;52.710;6.502;2023-11-21T13:06:03;15.43;;;8.73;;
52554;SDS011;38455;52.710;6.502;2023-11-21T13:08:30;13.70;;;8.10;;
52554;SDS011;38455;52.710;6.502;2023-11-21T13:10:57;12.90;;;7.55;;
52554;SDS011;38455;52.710;6.502;2023-11-21T13:13:24;12.63;;;7.95;;
52554;SDS011;38455;52.710;6.502;2023-11-21T13:18:25;13.40;;;8.00;;
52554;SDS011;38455;52.710;6.502;2023-11-21T13:20:52;14.35;;;8.27;;
52554;SDS011;38455;52.710;6.502;2023-11-21T13:23:22;15.35;;;8.65;;
52554;SDS011;38455;52.710;6.502;2023-11-21T13:25:49;12.82;;;8.75;;
52554;SDS011;38455;52.710;6.502;2023-11-21T13:28:15;11.52;;;8.00;;
52554;SDS011;38455;52.710;6.502;2023-11-21T13:30:43;12.25;;;8.38;;
52554;SDS011;38455;52.710;6.502;2023-11-21T13:33:09;13.18;;;7.72;;
52554;SDS011;38455;52.710;6.502;2023-11-21T13:35:42;11.70;;;7.70;;
52554;SDS011;38455;52.710;6.502;2023-11-21T13:38:13;9.55;;;6.43;;
52554;SDS011;38455;52.710;6.502;2023-11-21T13:40:42;10.43;;;6.78;;
52554;SDS011;38455;52.710;6.502;2023-11-21T13:43:19;10.35;;;6.88;;
52554;SDS011;38455;52.710;6.502;2023-11-21T13:45:47;12.13;;;7.25;;
52554;SDS011;38455;52.710;6.502;2023-11-21T13:48:23;10.13;;;7.28;;
52554;SDS011;38455;52.710;6.502;2023-11-21T13:51:07;24.17;;;6.97;;
52554;SDS011;38455;52.710;6.502;2023-11-21T13:53:42;9.50;;;6.28;;
52554;SDS011;38455;52.710;6.502;2023-11-21T13:56:09;13.27;;;7.82;;
52554;SDS011;38455;52.710;6.502;2023-11-21T13:58:36;13.98;;;7.57;;
52554;SDS011;38455;52.710;6.502;2023-11-21T14:01:30;10.50;;;6.45;;
52554;SDS011;38455;52.710;6.502;2023-11-21T14:03:59;12.88;;;7.57;;
52554;SDS011;38455;52.710;6.502;2023-11-21T14:06:47;9.77;;;7.40;;
52554;SDS011;38455;52.710;6.502;2023-11-21T14:09:18;10.50;;;7.35;;
52554;SDS011;38455;52.710;6.502;2023-11-21T14:14:17;11.63;;;7.43;;
52554;SDS011;38455;52.710;6.502;2023-11-21T14:16:44;10.45;;;6.78;;
52554;SDS011;38455;52.710;6.502;2023-11-21T14:19:10;12.23;;;7.72;;
52554;SDS011;38455;52.710;6.502;2023-11-21T14:21:42;11.65;;;7.80;;
52554;SDS011;38455;52.710;6.502;2023-11-21T14:24:09;12.07;;;7.65;;
52554;SDS011;38455;52.710;6.502;2023-11-21T14:26:35;12.18;;;8.13;;
52554;SDS011;38455;52.710;6.502;2023-11-21T14:29:00;11.35;;;8.60;;
52554;SDS011;38455;52.710;6.502;2023-11-21T14:31:27;13.93;;;8.10;;
52554;SDS011;38455;52.710;6.502;2023-11-21T14:33:55;13.38;;;8.82;;
52554;SDS011;38455;52.710;6.502;2023-11-21T14:36:22;9.43;;;6.95;;
52554;SDS011;38455;52.710;6.502;2023-11-21T14:38:49;13.23;;;8.20;;
52554;SDS011;38455;52.710;6.502;2023-11-21T14:41:14;12.88;;;7.93;;
52554;SDS011;38455;52.710;6.502;2023-11-21T14:43:40;12.27;;;7.78;;
52554;SDS011;38455;52.710;6.502;2023-11-21T14:46:06;12.45;;;8.27;;